createdAt,value
2022-09-15T00:00:00.449Z,67.82
2022-09-15T00:01:00.282Z,68.08
2022-09-15T00:02:00.402Z,68.08
2022-09-15T00:03:00.382Z,68.08
2022-09-15T00:04:00.466Z,68.08
2022-09-15T00:05:00.276Z,68.08
2022-09-15T00:06:00.297Z,68.27
2022-09-15T00:07:00.287Z,68.27
2022-09-15T00:08:00.377Z,68.27
2022-09-15T00:09:00.610Z,68.27
2022-09-15T00:10:00.366Z,68.27
2022-09-15T00:11:04.207Z,68.29
2022-09-15T00:12:00.462Z,68.29
2022-09-15T00:13:00.367Z,68.29
2022-09-15T00:14:01.581Z,68.29
2022-09-15T00:15:00.335Z,68.29
2022-09-15T00:16:00.448Z,68.58
2022-09-15T00:17:00.393Z,68.58
2022-09-15T00:18:00.271Z,68.58
2022-09-15T00:19:00.820Z,68.58
2022-09-15T00:20:00.388Z,68.58
2022-09-15T00:21:03.795Z,68.79
2022-09-15T00:22:00.376Z,68.79
2022-09-15T00:23:00.260Z,68.79
2022-09-15T00:24:00.927Z,68.79
2022-09-15T00:25:00.350Z,68.79
2022-09-15T00:26:00.433Z,69.05
2022-09-15T00:27:00.384Z,69.05
2022-09-15T00:28:00.330Z,69.05
2022-09-15T00:29:00.729Z,69.05
2022-09-15T00:30:00.301Z,69.05
2022-09-15T00:31:03.738Z,69.10
2022-09-15T00:32:00.383Z,69.10
2022-09-15T00:33:00.260Z,69.10
2022-09-15T00:34:00.905Z,69.10
2022-09-15T00:35:00.688Z,69.10
2022-09-15T00:36:02.233Z,69.10
2022-09-15T00:37:00.279Z,69.10
2022-09-15T00:38:00.277Z,69.10
2022-09-15T00:39:00.276Z,69.10
2022-09-15T00:40:00.421Z,69.10
2022-09-15T00:41:00.585Z,69.22
2022-09-15T00:42:00.263Z,69.22
2022-09-15T00:43:00.294Z,69.22
2022-09-15T00:44:03.478Z,69.22
2022-09-15T00:45:01.423Z,69.22
2022-09-15T00:46:00.377Z,69.68
2022-09-15T00:47:18.360Z,69.68
2022-09-15T00:48:00.474Z,69.68
2022-09-15T00:49:01.259Z,69.68
2022-09-15T00:50:04.195Z,69.68
2022-09-15T00:51:02.094Z,69.59
2022-09-15T00:52:03.129Z,69.59
2022-09-15T00:53:02.295Z,69.59
2022-09-15T00:54:01.661Z,69.59
2022-09-15T00:55:10.221Z,69.59
2022-09-15T00:56:01.465Z,69.69
2022-09-15T00:57:02.079Z,69.69
2022-09-15T00:58:05.758Z,69.69
2022-09-15T00:59:02.628Z,69.69
2022-09-15T01:00:01.348Z,69.69
2022-09-15T01:01:01.292Z,69.75
2022-09-15T01:02:03.363Z,69.75
2022-09-15T01:03:00.622Z,69.75
2022-09-15T01:04:00.532Z,69.75
2022-09-15T01:05:01.718Z,69.75
2022-09-15T01:06:07.115Z,69.82
2022-09-15T01:07:03.304Z,69.82
2022-09-15T01:08:04.862Z,69.82
2022-09-15T01:09:06.640Z,69.82
2022-09-15T01:10:03.367Z,69.82
2022-09-15T01:11:00.644Z,69.96
2022-09-15T01:12:01.496Z,69.96
2022-09-15T01:13:02.473Z,69.96
2022-09-15T01:14:00.287Z,69.96
2022-09-15T01:15:00.639Z,69.96
2022-09-15T01:16:10.316Z,70.17
2022-09-15T01:17:01.563Z,70.17
2022-09-15T01:18:10.184Z,70.17
2022-09-15T01:19:00.257Z,70.17
2022-09-15T01:20:07.839Z,70.17
2022-09-15T01:21:01.435Z,70.26
2022-09-15T01:22:10.189Z,70.26
2022-09-15T01:23:08.799Z,70.26
2022-09-15T01:24:03.517Z,70.26
2022-09-15T01:25:00.626Z,70.26
2022-09-15T01:26:10.517Z,70.37
2022-09-15T01:27:37.761Z,70.37
2022-09-15T01:28:03.624Z,70.37
2022-09-15T01:29:01.289Z,70.37
2022-09-15T01:30:01.265Z,70.37
2022-09-15T01:31:06.114Z,70.50
2022-09-15T01:32:00.347Z,70.50
2022-09-15T01:33:05.938Z,70.50
2022-09-15T01:34:04.817Z,70.50
2022-09-15T01:35:10.175Z,70.50
2022-09-15T01:36:00.250Z,70.60
2022-09-15T01:37:03.991Z,70.60
2022-09-15T01:38:08.019Z,70.60
2022-09-15T01:39:03.703Z,70.60
2022-09-15T01:40:01.377Z,70.60
2022-09-15T01:41:05.802Z,70.70
2022-09-15T01:42:02.570Z,70.70
2022-09-15T01:43:00.844Z,70.70
2022-09-15T01:44:05.453Z,70.70
2022-09-15T01:45:05.362Z,70.70
2022-09-15T01:46:01.238Z,71.07
2022-09-15T01:47:04.300Z,71.07
2022-09-15T01:48:01.304Z,71.07
2022-09-15T01:49:01.336Z,71.07
2022-09-15T01:50:04.982Z,71.07
2022-09-15T01:51:01.548Z,71.06
2022-09-15T01:52:00.631Z,71.06
2022-09-15T01:53:01.745Z,71.06
2022-09-15T01:54:02.388Z,71.06
2022-09-15T01:55:03.587Z,71.06
2022-09-15T01:56:04.650Z,70.91
2022-09-15T01:57:00.804Z,70.91
2022-09-15T01:58:00.263Z,70.91
2022-09-15T01:59:00.281Z,70.91
2022-09-15T02:00:00.413Z,70.91
2022-09-15T02:01:06.877Z,70.98
2022-09-15T02:02:09.375Z,70.98
2022-09-15T02:03:04.879Z,70.98
2022-09-15T02:04:03.873Z,70.98
2022-09-15T02:05:04.245Z,70.98
2022-09-15T02:06:03.010Z,71.02
2022-09-15T02:07:06.880Z,71.02
2022-09-15T02:08:00.270Z,71.02
2022-09-15T02:09:03.357Z,71.02
2022-09-15T02:10:00.328Z,71.02
2022-09-15T02:11:00.250Z,71.09
2022-09-15T02:12:07.724Z,71.09
2022-09-15T02:13:10.227Z,71.09
2022-09-15T02:14:00.275Z,71.09
2022-09-15T02:15:04.958Z,71.09
2022-09-15T02:16:00.598Z,71.50
2022-09-15T02:17:00.634Z,71.50
2022-09-15T02:18:01.515Z,71.50
2022-09-15T02:19:10.191Z,71.50
2022-09-15T02:20:09.726Z,71.50
2022-09-15T02:21:04.982Z,71.40
2022-09-15T02:22:10.195Z,71.40
2022-09-15T02:23:04.071Z,71.40
2022-09-15T02:24:04.724Z,71.40
2022-09-15T02:25:03.973Z,71.40
2022-09-15T02:26:02.112Z,71.46
2022-09-15T02:27:01.963Z,71.46
2022-09-15T02:28:03.539Z,71.46
2022-09-15T02:29:03.825Z,71.46
2022-09-15T02:30:04.114Z,71.46
2022-09-15T02:31:02.849Z,71.35
2022-09-15T02:32:03.838Z,71.35
2022-09-15T02:33:03.314Z,71.35
2022-09-15T02:34:02.666Z,71.35
2022-09-15T02:35:01.973Z,71.35
2022-09-15T02:36:01.208Z,71.34
2022-09-15T02:37:00.891Z,71.34
2022-09-15T02:38:00.826Z,71.34
2022-09-15T02:39:02.569Z,71.34
2022-09-15T02:40:00.861Z,71.34
2022-09-15T02:41:00.306Z,71.30
2022-09-15T02:42:00.603Z,71.30
2022-09-15T02:43:00.906Z,71.30
2022-09-15T02:44:00.419Z,71.30
2022-09-15T02:45:00.869Z,71.30
2022-09-15T02:46:00.362Z,71.58
2022-09-15T02:47:00.843Z,71.58
2022-09-15T02:48:00.412Z,71.58
2022-09-15T02:49:00.320Z,71.58
2022-09-15T02:50:00.294Z,71.58
2022-09-15T02:51:00.299Z,71.47
2022-09-15T02:52:00.334Z,71.47
2022-09-15T02:53:00.262Z,71.47
2022-09-15T02:54:00.311Z,71.47
2022-09-15T02:55:00.260Z,71.47
2022-09-15T02:56:00.358Z,71.47
2022-09-15T02:57:00.287Z,71.47
2022-09-15T02:58:00.301Z,71.47
2022-09-15T02:59:00.327Z,71.47
2022-09-15T03:00:00.439Z,71.47
2022-09-15T03:01:04.607Z,71.54
2022-09-15T03:02:00.339Z,71.54
2022-09-15T03:03:00.282Z,71.54
2022-09-15T03:04:01.638Z,71.54
2022-09-15T03:05:00.396Z,71.54
2022-09-15T03:06:00.646Z,71.54
2022-09-15T03:07:00.265Z,71.54
2022-09-15T03:08:00.361Z,71.54
2022-09-15T03:09:02.982Z,71.54
2022-09-15T03:10:00.301Z,71.54
2022-09-15T03:11:00.292Z,71.52
2022-09-15T03:12:00.359Z,71.52
2022-09-15T03:13:00.424Z,71.52
2022-09-15T03:14:01.800Z,71.52
2022-09-15T03:15:00.264Z,71.52
2022-09-15T03:16:05.562Z,71.99
2022-09-15T03:17:01.845Z,71.99
2022-09-15T03:18:00.583Z,71.99
2022-09-15T03:19:00.751Z,71.99
2022-09-15T03:20:00.449Z,71.99
2022-09-15T03:21:00.303Z,71.96
2022-09-15T03:22:00.300Z,71.96
2022-09-15T03:23:00.642Z,71.96
2022-09-15T03:24:00.371Z,71.96
2022-09-15T03:25:00.385Z,71.96
2022-09-15T03:26:01.685Z,72.03
2022-09-15T03:27:00.275Z,72.03
2022-09-15T03:28:00.329Z,72.03
2022-09-15T03:29:00.297Z,72.03
2022-09-15T03:30:00.310Z,72.03
2022-09-15T03:31:00.329Z,72.14
2022-09-15T03:32:00.426Z,72.14
2022-09-15T03:33:00.582Z,72.14
2022-09-15T03:34:00.450Z,72.14
2022-09-15T03:35:00.392Z,72.14
2022-09-15T03:36:00.454Z,72.33
2022-09-15T03:37:00.274Z,72.33
2022-09-15T03:38:00.276Z,72.33
2022-09-15T03:39:00.354Z,72.33
2022-09-15T03:40:00.468Z,72.33
2022-09-15T03:41:01.967Z,72.54
2022-09-15T03:42:00.261Z,72.54
2022-09-15T03:43:00.301Z,72.54
2022-09-15T03:44:00.352Z,72.54
2022-09-15T03:45:00.484Z,72.54
2022-09-15T03:46:00.707Z,72.89
2022-09-15T03:47:01.112Z,72.89
2022-09-15T03:48:00.773Z,72.89
2022-09-15T03:49:00.339Z,72.89
2022-09-15T03:50:00.598Z,72.89
2022-09-15T03:51:01.007Z,72.79
2022-09-15T03:52:00.379Z,72.79
2022-09-15T03:53:00.709Z,72.79
2022-09-15T03:54:00.314Z,72.79
2022-09-15T03:55:00.279Z,72.79
2022-09-15T03:56:10.406Z,72.95
2022-09-15T03:57:00.430Z,72.95
2022-09-15T03:58:00.280Z,72.95
2022-09-15T03:59:00.881Z,72.95
2022-09-15T04:00:00.418Z,72.95
2022-09-15T04:01:00.311Z,72.97
2022-09-15T04:02:00.436Z,72.97
2022-09-15T04:03:00.291Z,72.97
2022-09-15T04:04:00.713Z,72.97
2022-09-15T04:05:00.275Z,72.97
2022-09-15T04:06:00.356Z,72.96
2022-09-15T04:07:00.638Z,72.96
2022-09-15T04:08:00.882Z,72.96
2022-09-15T04:09:00.294Z,72.96
2022-09-15T04:10:00.287Z,72.96
2022-09-15T04:11:04.576Z,73.07
2022-09-15T04:12:00.332Z,73.07
2022-09-15T04:13:00.305Z,73.07
2022-09-15T04:14:00.283Z,73.07
2022-09-15T04:15:00.317Z,73.07
2022-09-15T04:16:01.386Z,73.70
2022-09-15T04:17:00.300Z,73.70
2022-09-15T04:18:00.393Z,73.70
2022-09-15T04:19:00.269Z,73.70
2022-09-15T04:20:00.410Z,73.70
2022-09-15T04:21:01.230Z,73.71
2022-09-15T04:22:00.276Z,73.71
2022-09-15T04:23:00.267Z,73.71
2022-09-15T04:24:00.376Z,73.71
2022-09-15T04:25:00.436Z,73.71
2022-09-15T04:26:01.990Z,73.63
2022-09-15T04:27:00.272Z,73.63
2022-09-15T04:28:00.390Z,73.63
2022-09-15T04:29:04.257Z,73.63
2022-09-15T04:30:00.295Z,73.63
2022-09-15T04:31:02.667Z,73.87
2022-09-15T04:32:00.363Z,73.87
2022-09-15T04:33:00.261Z,73.87
2022-09-15T04:34:00.349Z,73.87
2022-09-15T04:35:00.490Z,73.87
2022-09-15T04:36:05.442Z,74.23
2022-09-15T04:37:00.275Z,74.23
2022-09-15T04:38:00.266Z,74.23
2022-09-15T04:39:00.318Z,74.23
2022-09-15T04:40:00.468Z,74.23
2022-09-15T04:41:00.962Z,74.26
2022-09-15T04:42:00.289Z,74.26
2022-09-15T04:43:00.283Z,74.26
2022-09-15T04:44:00.993Z,74.26
2022-09-15T04:45:00.325Z,74.26
2022-09-15T04:46:00.282Z,74.87
2022-09-15T04:47:00.378Z,74.87
2022-09-15T04:48:00.371Z,74.87
2022-09-15T04:49:00.264Z,74.87
2022-09-15T04:50:00.344Z,74.87
2022-09-15T04:51:04.419Z,74.67
2022-09-15T04:52:00.362Z,74.67
2022-09-15T04:53:00.282Z,74.67
2022-09-15T04:54:00.327Z,74.67
2022-09-15T04:55:00.326Z,74.67
2022-09-15T04:56:04.645Z,74.74
2022-09-15T04:57:00.687Z,74.74
2022-09-15T04:58:00.849Z,74.74
2022-09-15T04:59:03.855Z,74.74
2022-09-15T05:00:00.437Z,74.74
2022-09-15T05:01:05.481Z,75.18
2022-09-15T05:02:00.437Z,75.18
2022-09-15T05:03:00.272Z,75.18
2022-09-15T05:04:01.201Z,75.18
2022-09-15T05:05:00.286Z,75.18
2022-09-15T05:06:00.271Z,74.89
2022-09-15T05:07:00.256Z,74.89
2022-09-15T05:08:00.370Z,74.89
2022-09-15T05:09:00.740Z,74.89
2022-09-15T05:10:00.281Z,74.89
2022-09-15T05:11:01.279Z,74.90
2022-09-15T05:12:00.394Z,74.90
2022-09-15T05:13:00.391Z,74.90
2022-09-15T05:14:00.276Z,74.90
2022-09-15T05:15:00.337Z,74.90
2022-09-15T05:16:03.577Z,75.59
2022-09-15T05:17:00.772Z,75.59
2022-09-15T05:18:00.268Z,75.59
2022-09-15T05:19:00.873Z,75.59
2022-09-15T05:20:00.522Z,75.59
2022-09-15T05:21:01.196Z,75.46
2022-09-15T05:22:00.292Z,75.46
2022-09-15T05:23:00.280Z,75.46
2022-09-15T05:24:00.389Z,75.46
2022-09-15T05:25:00.299Z,75.46
2022-09-15T05:26:01.759Z,75.48
2022-09-15T05:27:00.283Z,75.48
2022-09-15T05:28:00.364Z,75.48
2022-09-15T05:29:00.277Z,75.48
2022-09-15T05:30:23.498Z,75.48
2022-09-15T05:31:00.637Z,75.43
2022-09-15T05:32:00.339Z,75.43
2022-09-15T05:33:00.274Z,75.43
2022-09-15T05:34:01.089Z,75.43
2022-09-15T05:35:00.274Z,75.43
2022-09-15T05:36:00.827Z,75.30
2022-09-15T05:37:00.559Z,75.30
2022-09-15T05:38:00.263Z,75.30
2022-09-15T05:39:01.595Z,75.30
2022-09-15T05:40:01.253Z,75.30
2022-09-15T05:41:00.969Z,75.39
2022-09-15T05:42:00.270Z,75.39
2022-09-15T05:43:00.263Z,75.39
2022-09-15T05:44:00.942Z,75.39
2022-09-15T05:45:00.281Z,75.39
2022-09-15T05:46:00.366Z,75.73
2022-09-15T05:47:00.544Z,75.73
2022-09-15T05:48:00.343Z,75.73
2022-09-15T05:49:00.262Z,75.73
2022-09-15T05:50:00.288Z,75.73
2022-09-15T05:51:00.658Z,75.83
2022-09-15T05:52:00.368Z,75.83
2022-09-15T05:53:00.354Z,75.83
2022-09-15T05:54:00.307Z,75.83
2022-09-15T05:55:00.330Z,75.83
2022-09-15T05:56:02.094Z,75.87
2022-09-15T05:57:00.264Z,75.87
2022-09-15T05:58:00.272Z,75.87
2022-09-15T05:59:01.003Z,75.87
2022-09-15T06:00:00.408Z,75.87
2022-09-15T06:01:04.557Z,75.91
2022-09-15T06:02:00.511Z,75.91
2022-09-15T06:03:00.554Z,75.91
2022-09-15T06:04:00.385Z,75.91
2022-09-15T06:05:00.293Z,75.91
2022-09-15T06:06:01.231Z,76.38
2022-09-15T06:07:00.265Z,76.38
2022-09-15T06:08:00.388Z,76.38
2022-09-15T06:09:00.716Z,76.38
2022-09-15T06:10:00.255Z,76.38
2022-09-15T06:11:01.323Z,76.17
2022-09-15T06:12:00.370Z,76.17
2022-09-15T06:13:00.314Z,76.17
2022-09-15T06:14:01.262Z,76.17
2022-09-15T06:15:00.282Z,76.17
2022-09-15T06:16:02.283Z,76.62
2022-09-15T06:17:00.280Z,76.62
2022-09-15T06:18:00.268Z,76.62
2022-09-15T06:19:00.517Z,76.62
2022-09-15T06:20:00.355Z,76.62
2022-09-15T06:21:02.275Z,76.32
2022-09-15T06:22:00.276Z,76.32
2022-09-15T06:23:00.281Z,76.32
2022-09-15T06:24:01.697Z,76.32
2022-09-15T06:25:00.277Z,76.32
2022-09-15T06:26:04.137Z,76.30
2022-09-15T06:27:00.358Z,76.30
2022-09-15T06:28:00.387Z,76.30
2022-09-15T06:29:01.290Z,76.30
2022-09-15T06:30:00.291Z,76.30
2022-09-15T06:31:00.363Z,76.36
2022-09-15T06:32:00.504Z,76.36
2022-09-15T06:33:00.276Z,76.36
2022-09-15T06:34:00.500Z,76.36
2022-09-15T06:35:00.532Z,76.36
2022-09-15T06:36:00.461Z,76.36
2022-09-15T06:37:00.266Z,76.36
2022-09-15T06:38:00.304Z,76.36
2022-09-15T06:39:00.289Z,76.36
2022-09-15T06:40:00.689Z,76.36
2022-09-15T06:41:00.271Z,76.45
2022-09-15T06:42:03.260Z,76.45
2022-09-15T06:43:00.279Z,76.45
2022-09-15T06:44:00.362Z,76.45
2022-09-15T06:45:00.299Z,76.45
2022-09-15T06:46:01.166Z,76.77
2022-09-15T06:47:00.338Z,76.77
2022-09-15T06:48:22.970Z,76.77
2022-09-15T06:49:00.380Z,76.77
2022-09-15T06:50:00.302Z,76.77
2022-09-15T06:51:01.213Z,76.58
2022-09-15T06:52:00.421Z,76.58
2022-09-15T06:53:00.280Z,76.58
2022-09-15T06:54:00.922Z,76.58
2022-09-15T06:55:00.272Z,76.58
2022-09-15T06:56:01.091Z,76.32
2022-09-15T06:57:00.292Z,76.32
2022-09-15T06:58:00.338Z,76.32
2022-09-15T06:59:00.273Z,76.32
2022-09-15T07:00:00.542Z,76.32
2022-09-15T07:01:02.190Z,76.15
2022-09-15T07:02:04.745Z,76.15
2022-09-15T07:03:00.678Z,76.15
2022-09-15T07:04:02.899Z,76.15
2022-09-15T07:05:00.283Z,76.15
2022-09-15T07:06:00.356Z,75.83
2022-09-15T07:07:00.259Z,75.83
2022-09-15T07:08:00.399Z,75.83
2022-09-15T07:09:00.272Z,75.83
2022-09-15T07:10:00.425Z,75.83
2022-09-15T07:11:00.340Z,74.98
2022-09-15T07:12:00.397Z,74.98
2022-09-15T07:13:00.274Z,74.98
2022-09-15T07:14:00.344Z,74.98
2022-09-15T07:15:00.277Z,74.98
2022-09-15T07:16:01.316Z,74.78
2022-09-15T07:17:00.281Z,74.78
2022-09-15T07:18:00.261Z,74.78
2022-09-15T07:19:00.308Z,74.78
2022-09-15T07:20:00.378Z,74.78
2022-09-15T07:21:01.731Z,74.29
2022-09-15T07:22:00.265Z,74.29
2022-09-15T07:23:00.270Z,74.29
2022-09-15T07:24:03.833Z,74.29
2022-09-15T07:25:00.290Z,74.29
2022-09-15T07:26:03.942Z,73.81
2022-09-15T07:27:00.260Z,73.81
2022-09-15T07:28:00.383Z,73.81
2022-09-15T07:29:01.591Z,73.81
2022-09-15T07:30:00.647Z,73.81
2022-09-15T07:31:00.585Z,73.00
2022-09-15T07:32:00.446Z,73.00
2022-09-15T07:33:00.289Z,73.00
2022-09-15T07:34:00.839Z,73.00
2022-09-15T07:35:00.362Z,73.00
2022-09-15T07:36:00.914Z,72.43
2022-09-15T07:37:00.286Z,72.43
2022-09-15T07:38:00.267Z,72.43
2022-09-15T07:39:01.443Z,72.43
2022-09-15T07:40:00.496Z,72.43
2022-09-15T07:41:04.464Z,71.65
2022-09-15T07:42:00.305Z,71.65
2022-09-15T07:43:00.452Z,71.65
2022-09-15T07:44:00.532Z,71.65
2022-09-15T07:45:00.292Z,71.65
2022-09-15T07:46:00.821Z,70.96
2022-09-15T07:47:00.320Z,70.96
2022-09-15T07:48:00.408Z,70.96
2022-09-15T07:49:00.482Z,70.96
2022-09-15T07:50:00.298Z,70.96
2022-09-15T07:51:00.446Z,70.29
2022-09-15T07:52:00.353Z,70.29
2022-09-15T07:53:00.470Z,70.29
2022-09-15T07:54:00.334Z,70.29
2022-09-15T07:55:00.268Z,70.29
2022-09-15T07:56:00.349Z,68.99
2022-09-15T07:57:00.538Z,68.99
2022-09-15T07:58:00.589Z,68.99
2022-09-15T07:59:00.390Z,68.99
2022-09-15T08:00:00.440Z,68.99
2022-09-15T08:01:02.873Z,68.06
2022-09-15T08:02:00.311Z,68.06
2022-09-15T08:03:00.313Z,68.06
2022-09-15T08:04:00.409Z,68.06
2022-09-15T08:05:00.266Z,68.06
2022-09-15T08:06:01.055Z,67.76
2022-09-15T08:07:00.313Z,67.76
2022-09-15T08:08:00.368Z,67.76
2022-09-15T08:09:01.173Z,67.76
2022-09-15T08:10:00.681Z,67.76
2022-09-15T08:11:04.617Z,67.21
2022-09-15T08:12:00.347Z,67.21
2022-09-15T08:13:00.464Z,67.21
2022-09-15T08:14:00.314Z,67.21
2022-09-15T08:15:00.338Z,67.21
2022-09-15T08:16:04.121Z,65.72
2022-09-15T08:17:00.551Z,65.72
2022-09-15T08:18:00.257Z,65.72
2022-09-15T08:19:00.680Z,65.72
2022-09-15T08:20:00.361Z,65.72
2022-09-15T08:21:04.452Z,64.76
2022-09-15T08:22:01.033Z,64.76
2022-09-15T08:23:00.285Z,64.76
2022-09-15T08:24:00.318Z,64.76
2022-09-15T08:25:00.347Z,64.76
2022-09-15T08:26:00.400Z,64.55
2022-09-15T08:27:00.293Z,64.55
2022-09-15T08:28:00.336Z,64.55
2022-09-15T08:29:00.264Z,64.55
2022-09-15T08:30:00.312Z,64.55
2022-09-15T08:31:01.393Z,63.60
2022-09-15T08:32:00.355Z,63.60
2022-09-15T08:33:00.287Z,63.60
2022-09-15T08:34:00.266Z,63.60
2022-09-15T08:35:00.285Z,63.60
2022-09-15T08:36:03.157Z,62.63
2022-09-15T08:37:00.270Z,62.63
2022-09-15T08:38:00.285Z,62.63
2022-09-15T08:39:01.555Z,62.63
2022-09-15T08:40:00.481Z,62.63
2022-09-15T08:41:03.520Z,63.28
2022-09-15T08:42:01.588Z,63.28
2022-09-15T08:43:05.169Z,63.28
2022-09-15T08:44:00.249Z,63.28
2022-09-15T08:45:02.428Z,63.28
2022-09-15T08:46:05.063Z,62.24
2022-09-15T08:47:04.589Z,62.24
2022-09-15T08:48:02.257Z,62.24
2022-09-15T08:49:04.071Z,62.24
2022-09-15T08:50:10.311Z,62.24
2022-09-15T08:51:04.232Z,61.15
2022-09-15T08:52:03.761Z,61.15
2022-09-15T08:53:10.241Z,61.15
2022-09-15T08:54:04.653Z,61.15
2022-09-15T08:55:03.491Z,61.15
2022-09-15T08:56:02.309Z,60.06
2022-09-15T08:57:02.297Z,60.06
2022-09-15T08:58:00.300Z,60.06
2022-09-15T08:59:00.384Z,60.06
2022-09-15T09:00:00.471Z,60.06
2022-09-15T09:01:00.256Z,59.91
2022-09-15T09:02:03.674Z,59.91
2022-09-15T09:03:10.242Z,59.91
2022-09-15T09:04:10.349Z,59.91
2022-09-15T09:05:00.276Z,59.91
2022-09-15T09:06:03.915Z,60.47
2022-09-15T09:07:10.183Z,60.47
2022-09-15T09:08:03.600Z,60.47
2022-09-15T09:09:10.227Z,60.47
2022-09-15T09:10:10.202Z,60.47
2022-09-15T09:11:07.689Z,59.94
2022-09-15T09:12:01.290Z,59.94
2022-09-15T09:13:07.761Z,59.94
2022-09-15T09:14:00.268Z,59.94
2022-09-15T09:15:01.286Z,59.94
2022-09-15T09:16:10.371Z,58.74
2022-09-15T09:17:00.268Z,58.74
2022-09-15T09:18:10.192Z,58.74
2022-09-15T09:19:03.762Z,58.74
2022-09-15T09:20:00.293Z,58.74
2022-09-15T09:21:10.189Z,57.92
2022-09-15T09:22:04.623Z,57.92
2022-09-15T09:23:01.059Z,57.92
2022-09-15T09:24:03.214Z,57.92
2022-09-15T09:25:11.611Z,57.92
2022-09-15T09:26:00.458Z,57.91
2022-09-15T09:27:00.428Z,57.91
2022-09-15T09:28:00.748Z,57.91
2022-09-15T09:29:02.151Z,57.91
2022-09-15T09:30:09.465Z,57.91
2022-09-15T09:31:01.615Z,57.92
2022-09-15T09:32:01.643Z,57.92
2022-09-15T09:33:00.250Z,57.92
2022-09-15T09:34:10.186Z,57.92
2022-09-15T09:35:02.671Z,57.92
2022-09-15T09:36:00.419Z,57.57
2022-09-15T09:37:08.834Z,57.57
2022-09-15T09:38:00.727Z,57.57
2022-09-15T09:39:00.977Z,57.57
2022-09-15T09:40:00.481Z,57.57
2022-09-15T09:41:02.492Z,56.46
2022-09-15T09:42:01.577Z,56.46
2022-09-15T09:43:00.317Z,56.46
2022-09-15T09:44:01.324Z,56.46
2022-09-15T09:45:00.311Z,56.46
2022-09-15T09:46:00.388Z,55.76
2022-09-15T09:47:00.820Z,55.76
2022-09-15T09:48:02.784Z,55.76
2022-09-15T09:49:03.621Z,55.76
2022-09-15T09:50:00.312Z,55.76
2022-09-15T09:51:00.266Z,55.47
2022-09-15T09:52:01.120Z,55.47
2022-09-15T09:53:10.170Z,55.47
2022-09-15T09:54:04.531Z,55.47
2022-09-15T09:55:01.057Z,55.47
2022-09-15T09:56:10.184Z,55.44
2022-09-15T09:57:10.289Z,55.44
2022-09-15T09:58:10.174Z,55.44
2022-09-15T09:59:00.774Z,55.44
2022-09-15T10:00:00.486Z,55.44
2022-09-15T10:01:08.087Z,55.90
2022-09-15T10:02:10.171Z,55.90
2022-09-15T10:03:09.442Z,55.90
2022-09-15T10:04:10.191Z,55.90
2022-09-15T10:05:03.599Z,55.90
2022-09-15T10:06:03.707Z,56.04
2022-09-15T10:07:00.662Z,56.04
2022-09-15T10:08:01.471Z,56.04
2022-09-15T10:09:06.603Z,56.04
2022-09-15T10:10:01.007Z,56.04
2022-09-15T10:11:04.252Z,56.12
2022-09-15T10:12:01.474Z,56.12
2022-09-15T10:13:01.986Z,56.12
2022-09-15T10:14:00.735Z,56.12
2022-09-15T10:15:01.880Z,56.12
2022-09-15T10:16:01.476Z,55.21
2022-09-15T10:17:03.306Z,55.21
2022-09-15T10:18:00.480Z,55.21
2022-09-15T10:19:00.489Z,55.21
2022-09-15T10:20:01.095Z,55.21
2022-09-15T10:21:02.163Z,56.08
2022-09-15T10:22:01.213Z,56.08
2022-09-15T10:23:02.119Z,56.08
2022-09-15T10:24:10.180Z,56.08
2022-09-15T10:25:03.162Z,56.08
2022-09-15T10:26:10.175Z,55.70
2022-09-15T10:27:10.172Z,55.70
2022-09-15T10:28:02.411Z,55.70
2022-09-15T10:29:07.583Z,55.70
2022-09-15T10:30:10.180Z,55.70
2022-09-15T10:31:03.517Z,55.40
2022-09-15T10:32:10.272Z,55.40
2022-09-15T10:33:10.207Z,55.40
2022-09-15T10:34:10.197Z,55.40
2022-09-15T10:35:01.692Z,55.40
2022-09-15T10:36:02.942Z,54.31
2022-09-15T10:37:05.860Z,54.31
2022-09-15T10:38:03.527Z,54.31
2022-09-15T10:39:10.221Z,54.31
2022-09-15T10:40:03.944Z,54.31
2022-09-15T10:41:00.271Z,54.82
2022-09-15T10:42:00.254Z,54.82
2022-09-15T10:43:10.196Z,54.82
2022-09-15T10:44:10.201Z,54.82
2022-09-15T10:45:10.206Z,54.82
2022-09-15T10:46:00.326Z,53.77
2022-09-15T10:47:10.163Z,53.77
2022-09-15T10:48:03.558Z,53.77
2022-09-15T10:49:10.180Z,53.77
2022-09-15T10:50:10.209Z,53.77
2022-09-15T10:51:00.264Z,53.89
2022-09-15T10:52:10.184Z,53.89
2022-09-15T10:53:10.198Z,53.89
2022-09-15T10:54:00.623Z,53.89
2022-09-15T10:55:10.209Z,53.89
2022-09-15T10:56:10.191Z,54.76
2022-09-15T10:57:10.194Z,54.76
2022-09-15T10:58:01.326Z,54.76
2022-09-15T10:59:09.469Z,54.76
2022-09-15T11:00:04.426Z,54.76
2022-09-15T11:01:08.461Z,55.03
2022-09-15T11:02:10.217Z,55.03
2022-09-15T11:03:10.169Z,55.03
2022-09-15T11:04:01.547Z,55.03
2022-09-15T11:05:10.208Z,55.03
2022-09-15T11:06:06.121Z,54.03
2022-09-15T11:07:09.327Z,54.03
2022-09-15T11:08:10.188Z,54.03
2022-09-15T11:09:09.484Z,54.03
2022-09-15T11:10:10.236Z,54.03
2022-09-15T11:11:03.576Z,53.94
2022-09-15T11:12:10.168Z,53.94
2022-09-15T11:13:01.257Z,53.94
2022-09-15T11:14:10.180Z,53.94
2022-09-15T11:15:10.197Z,53.94
2022-09-15T11:16:10.203Z,53.70
2022-09-15T11:17:08.390Z,53.70
2022-09-15T11:18:10.172Z,53.70
2022-09-15T11:19:10.182Z,53.70
2022-09-15T11:20:00.278Z,53.70
2022-09-15T11:21:01.265Z,53.46
2022-09-15T11:22:03.562Z,53.46
2022-09-15T11:23:03.613Z,53.46
2022-09-15T11:24:10.175Z,53.46
2022-09-15T11:25:04.150Z,53.46
2022-09-15T11:26:04.007Z,52.65
2022-09-15T11:27:04.178Z,52.65
2022-09-15T11:28:04.423Z,52.65
2022-09-15T11:29:04.444Z,52.65
2022-09-15T11:30:00.258Z,52.65
2022-09-15T11:31:10.295Z,53.24
2022-09-15T11:32:03.940Z,53.24
2022-09-15T11:33:05.150Z,53.24
2022-09-15T11:34:05.361Z,53.24
2022-09-15T11:35:10.212Z,53.24
2022-09-15T11:36:07.592Z,53.40
2022-09-15T11:37:00.256Z,53.40
2022-09-15T11:38:04.548Z,53.40
2022-09-15T11:39:03.580Z,53.40
2022-09-15T11:40:06.157Z,53.40
2022-09-15T11:41:10.175Z,52.13
2022-09-15T11:42:06.344Z,52.13
2022-09-15T11:43:08.176Z,52.13
2022-09-15T11:44:14.691Z,52.13
2022-09-15T11:45:01.159Z,52.13
2022-09-15T11:46:02.108Z,52.26
2022-09-15T11:47:03.524Z,52.26
2022-09-15T11:48:08.817Z,52.26
2022-09-15T11:49:05.452Z,52.26
2022-09-15T11:50:10.216Z,52.26
2022-09-15T11:51:01.984Z,52.52
2022-09-15T11:52:05.660Z,52.52
2022-09-15T11:53:10.205Z,52.52
2022-09-15T11:54:04.729Z,52.52
2022-09-15T11:55:01.497Z,52.52
2022-09-15T11:56:10.193Z,52.77
2022-09-15T11:57:00.415Z,52.77
2022-09-15T11:58:00.266Z,52.77
2022-09-15T11:59:04.492Z,52.77
2022-09-15T12:00:04.507Z,52.77
2022-09-15T12:01:03.633Z,52.68
2022-09-15T12:02:09.213Z,52.68
2022-09-15T12:03:10.262Z,52.68
2022-09-15T12:04:03.641Z,52.68
2022-09-15T12:05:04.330Z,52.68
2022-09-15T12:06:06.439Z,52.21
2022-09-15T12:07:13.675Z,52.21
2022-09-15T12:08:00.258Z,52.21
2022-09-15T12:09:01.852Z,52.21
2022-09-15T12:10:05.688Z,52.21
2022-09-15T12:11:01.884Z,51.96
2022-09-15T12:12:02.004Z,51.96
2022-09-15T12:13:00.433Z,51.96
2022-09-15T12:14:02.203Z,51.96
2022-09-15T12:15:00.291Z,51.96
2022-09-15T12:16:00.998Z,52.29
2022-09-15T12:17:00.898Z,52.29
2022-09-15T12:18:06.422Z,52.29
2022-09-15T12:19:10.175Z,52.29
2022-09-15T12:20:04.872Z,52.29
2022-09-15T12:21:01.292Z,49.87
2022-09-15T12:22:10.202Z,49.87
2022-09-15T12:23:00.262Z,49.87
2022-09-15T12:24:10.188Z,49.87
2022-09-15T12:25:02.616Z,49.87
2022-09-15T12:26:03.513Z,50.69
2022-09-15T12:27:00.546Z,50.69
2022-09-15T12:28:10.179Z,50.69
2022-09-15T12:29:02.722Z,50.69
2022-09-15T12:30:00.450Z,50.69
2022-09-15T12:31:10.204Z,51.46
2022-09-15T12:32:10.173Z,51.46
2022-09-15T12:33:10.185Z,51.46
2022-09-15T12:34:02.233Z,51.46
2022-09-15T12:35:01.398Z,51.46
2022-09-15T12:36:10.183Z,51.11
2022-09-15T12:37:10.207Z,51.11
2022-09-15T12:38:00.296Z,51.11
2022-09-15T12:39:01.397Z,51.11
2022-09-15T12:40:00.606Z,51.11
2022-09-15T12:41:00.341Z,49.90
2022-09-15T12:42:00.313Z,49.90
2022-09-15T12:43:01.658Z,49.90
2022-09-15T12:44:05.123Z,49.90
2022-09-15T12:45:05.777Z,49.90
2022-09-15T12:46:00.916Z,50.70
2022-09-15T12:47:01.794Z,50.70
2022-09-15T12:48:04.707Z,50.70
2022-09-15T12:49:02.372Z,50.70
2022-09-15T12:50:10.185Z,50.70
2022-09-15T12:51:03.082Z,51.42
2022-09-15T12:52:02.204Z,51.42